createdAt,value
2023-02-11T00:01:14.867Z,66.40
2023-02-11T00:03:41.884Z,66.40
2023-02-11T00:06:11.742Z,66.40
2023-02-11T00:08:40.105Z,66.50
2023-02-11T00:11:07.672Z,66.40
2023-02-11T00:13:34.717Z,66.50
2023-02-11T00:16:08.231Z,66.50
2023-02-11T00:18:36.265Z,66.60
2023-02-11T00:21:08.960Z,66.70
2023-02-11T00:23:36.705Z,67.50
2023-02-11T00:26:04.770Z,66.80
2023-02-11T00:28:31.778Z,66.80
2023-02-11T00:30:58.968Z,66.80
2023-02-11T00:33:26.047Z,66.90
2023-02-11T00:35:53.282Z,66.90
2023-02-11T00:38:20.424Z,66.90
2023-02-11T00:40:47.306Z,66.90
2023-02-11T00:43:14.245Z,67.00
2023-02-11T00:45:41.254Z,67.00
2023-02-11T00:48:08.077Z,67.10
2023-02-11T00:50:35.483Z,67.10
2023-02-11T00:53:02.510Z,67.20
2023-02-11T00:55:29.587Z,67.30
2023-02-11T00:57:56.853Z,67.30
2023-02-11T01:00:23.687Z,67.30
2023-02-11T01:02:50.610Z,67.30
2023-02-11T01:05:17.753Z,67.10
2023-02-11T01:07:44.607Z,67.10
2023-02-11T01:10:12.540Z,67.10
2023-02-11T01:12:40.497Z,67.00
2023-02-11T01:15:09.702Z,66.90
2023-02-11T01:17:38.377Z,66.80
2023-02-11T01:20:08.356Z,66.70
2023-02-11T01:22:39.426Z,66.70
2023-02-11T01:25:08.690Z,67.40
2023-02-11T01:27:37.004Z,66.80
2023-02-11T01:30:07.893Z,66.80
2023-02-11T01:32:35.488Z,66.80
2023-02-11T01:35:02.798Z,67.00
2023-02-11T01:37:29.717Z,67.20
2023-02-11T01:39:57.457Z,67.40
2023-02-11T01:42:24.820Z,67.40
2023-02-11T01:44:54.318Z,67.50
2023-02-11T01:47:21.821Z,67.50
2023-02-11T01:49:57.544Z,67.60
2023-02-11T01:52:32.688Z,67.60
2023-02-11T01:55:25.946Z,67.60
2023-02-11T01:57:59.120Z,67.60
2023-02-11T02:00:37.623Z,67.60
2023-02-11T02:03:20.174Z,67.60
2023-02-11T02:06:06.199Z,67.60
2023-02-11T02:08:43.869Z,67.70
2023-02-11T02:11:10.935Z,67.70
2023-02-11T02:13:38.269Z,67.70
2023-02-11T02:16:15.768Z,67.90
2023-02-11T02:19:02.367Z,68.00
2023-02-11T02:22:14.092Z,68.10
2023-02-11T02:25:27.733Z,68.20
2023-02-11T02:28:48.420Z,68.30
2023-02-11T02:31:37.487Z,68.30
2023-02-11T02:34:16.073Z,68.30
2023-02-11T02:36:55.326Z,68.30
2023-02-11T02:39:29.241Z,68.40
2023-02-11T02:41:57.139Z,68.40
2023-02-11T02:44:24.751Z,68.40
2023-02-11T02:46:51.752Z,68.50
2023-02-11T02:49:18.829Z,68.50
2023-02-11T02:52:29.312Z,68.50
2023-02-11T02:55:22.472Z,68.60
2023-02-11T02:58:28.039Z,68.50
2023-02-11T03:01:28.619Z,68.40
2023-02-11T03:04:01.965Z,68.30
2023-02-11T03:06:53.503Z,68.30
2023-02-11T03:09:35.433Z,68.30
2023-02-11T03:12:04.316Z,68.30
2023-02-11T03:14:32.582Z,68.30
2023-02-11T03:17:02.521Z,68.40
2023-02-11T03:19:35.647Z,68.40
2023-02-11T03:22:11.768Z,68.40
2023-02-11T03:24:41.566Z,68.50
2023-02-11T03:27:27.184Z,68.40
2023-02-11T03:30:02.092Z,68.40
2023-02-11T03:32:37.229Z,68.40
2023-02-11T03:35:29.697Z,68.40
2023-02-11T03:37:57.996Z,68.40
2023-02-11T03:40:36.314Z,68.30
2023-02-11T03:43:17.293Z,68.50
2023-02-11T03:45:48.112Z,68.40
2023-02-11T03:48:24.051Z,68.40
2023-02-11T03:50:53.421Z,68.40
2023-02-11T03:53:22.750Z,68.40
2023-02-11T03:55:52.936Z,68.50
2023-02-11T03:58:20.347Z,68.50
2023-02-11T04:00:47.363Z,68.50
2023-02-11T04:03:14.443Z,68.60
2023-02-11T04:05:41.591Z,68.60
2023-02-11T04:08:09.321Z,68.70
2023-02-11T04:10:36.360Z,68.80
2023-02-11T04:13:03.389Z,68.80
2023-02-11T04:15:30.386Z,68.90
2023-02-11T04:17:57.219Z,69.00
2023-02-11T04:20:24.279Z,69.10
2023-02-11T04:22:51.104Z,69.20
2023-02-11T04:25:18.181Z,69.30
2023-02-11T04:27:45.012Z,69.60
2023-02-11T04:30:13.552Z,69.50
2023-02-11T04:32:40.603Z,69.70
2023-02-11T04:35:07.918Z,69.80
2023-02-11T04:37:35.586Z,69.80
2023-02-11T04:40:02.745Z,69.90
2023-02-11T04:42:29.771Z,70.00
2023-02-11T04:44:56.880Z,70.10
2023-02-11T04:47:23.832Z,70.20
2023-02-11T04:49:50.791Z,70.30
2023-02-11T04:52:17.675Z,70.40
2023-02-11T04:54:45.823Z,70.60
2023-02-11T04:57:12.694Z,70.80
2023-02-11T04:59:40.590Z,71.00
2023-02-11T05:02:07.631Z,71.90
2023-02-11T05:04:34.707Z,71.30
2023-02-11T05:07:01.960Z,71.50
2023-02-11T05:09:29.139Z,71.90
2023-02-11T05:11:56.208Z,71.80
2023-02-11T05:14:23.240Z,72.00
2023-02-11T05:16:50.301Z,72.00
2023-02-11T05:19:17.301Z,72.10
2023-02-11T05:22:00.271Z,72.20
2023-02-11T05:24:28.887Z,72.30
2023-02-11T05:26:56.040Z,72.30
2023-02-11T05:29:22.885Z,72.50
2023-02-11T05:31:49.715Z,72.50
2023-02-11T05:34:16.577Z,72.60
2023-02-11T05:36:43.692Z,72.60
2023-02-11T05:39:10.672Z,72.70
2023-02-11T05:41:38.331Z,72.80
2023-02-11T05:44:05.300Z,73.60
2023-02-11T05:46:32.330Z,72.90
2023-02-11T05:48:59.352Z,73.10
2023-02-11T05:51:26.327Z,73.20
2023-02-11T05:53:53.622Z,73.30
2023-02-11T05:56:20.640Z,73.40
2023-02-11T05:58:47.428Z,73.60
2023-02-11T06:01:14.323Z,73.70
2023-02-11T06:03:41.759Z,73.80
2023-02-11T06:06:12.612Z,73.90
2023-02-11T06:08:40.180Z,74.00
2023-02-11T06:11:07.415Z,74.10
2023-02-11T06:13:35.149Z,74.20
2023-02-11T06:16:03.187Z,74.40
2023-02-11T06:18:30.507Z,74.40
2023-02-11T06:20:57.395Z,74.60
2023-02-11T06:23:24.384Z,74.70
2023-02-11T06:25:52.714Z,74.80
2023-02-11T06:28:20.181Z,75.00
2023-02-11T06:30:47.389Z,75.00
2023-02-11T06:33:14.376Z,75.20
2023-02-11T06:35:41.379Z,75.30
2023-02-11T06:38:08.285Z,75.50
2023-02-11T06:40:35.254Z,75.50
2023-02-11T06:43:02.343Z,75.70
2023-02-11T06:45:29.404Z,75.80
2023-02-11T06:47:56.212Z,76.00
2023-02-11T06:50:23.353Z,76.20
2023-02-11T06:52:50.303Z,76.30
2023-02-11T06:55:17.614Z,76.40
2023-02-11T06:57:44.722Z,77.40
2023-02-11T07:00:12.728Z,76.70
2023-02-11T07:02:39.821Z,76.90
2023-02-11T07:05:08.091Z,77.10
2023-02-11T07:07:36.308Z,77.10
2023-02-11T07:10:04.508Z,77.60
2023-02-11T07:12:31.983Z,77.20
2023-02-11T07:14:58.888Z,77.30
2023-02-11T07:17:25.890Z,77.40
2023-02-11T07:19:52.794Z,77.50
2023-02-11T07:22:19.883Z,77.70
2023-02-11T07:24:46.904Z,77.60
2023-02-11T07:27:13.778Z,77.60
2023-02-11T07:29:42.708Z,77.70
2023-02-11T07:32:09.675Z,77.70
2023-02-11T07:34:36.857Z,77.70
2023-02-11T07:37:03.958Z,77.80
2023-02-11T07:39:30.990Z,77.80
2023-02-11T07:41:58.339Z,77.90
2023-02-11T07:44:25.956Z,78.70
2023-02-11T07:46:53.217Z,78.00
2023-02-11T07:49:20.178Z,78.00
2023-02-11T07:51:47.847Z,78.00
2023-02-11T07:54:14.925Z,78.10
2023-02-11T07:56:41.999Z,78.20
2023-02-11T07:59:09.000Z,78.20
2023-02-11T08:01:36.052Z,78.10
2023-02-11T08:04:03.883Z,78.10
2023-02-11T08:06:34.288Z,78.10
2023-02-11T08:09:07.739Z,78.00
2023-02-11T08:11:35.330Z,78.10
2023-02-11T08:14:02.590Z,78.00
2023-02-11T08:16:34.004Z,78.00
2023-02-11T08:19:05.063Z,78.10
2023-02-11T08:21:32.266Z,78.10
2023-02-11T08:23:59.390Z,78.10
2023-02-11T08:26:31.674Z,78.00
2023-02-11T08:28:59.307Z,78.20
2023-02-11T08:31:35.142Z,78.20
2023-02-11T08:34:02.758Z,78.30
2023-02-11T08:36:36.612Z,78.20
2023-02-11T08:39:18.685Z,78.30
2023-02-11T08:41:53.872Z,78.30
2023-02-11T08:44:22.470Z,78.30
2023-02-11T08:46:50.674Z,78.20
2023-02-11T08:49:18.142Z,79.10
2023-02-11T08:51:45.903Z,78.50
2023-02-11T08:54:14.187Z,78.50
2023-02-11T08:56:41.686Z,78.70
2023-02-11T08:59:12.799Z,78.70
2023-02-11T09:01:39.732Z,78.80
2023-02-11T09:04:06.628Z,78.80
2023-02-11T09:06:34.108Z,78.80
2023-02-11T09:09:01.656Z,78.90
2023-02-11T09:11:35.211Z,78.90
2023-02-11T09:14:04.020Z,79.10
2023-02-11T09:16:34.572Z,79.20
2023-02-11T09:19:05.033Z,79.40
2023-02-11T09:21:32.121Z,79.60
2023-02-11T09:23:59.260Z,79.60
2023-02-11T09:26:32.372Z,79.50
2023-02-11T09:29:00.199Z,79.60
2023-02-11T09:31:29.869Z,79.70
2023-02-11T09:34:03.551Z,79.70
2023-02-11T09:36:34.617Z,79.70
2023-02-11T09:39:04.491Z,79.60
2023-02-11T09:42:09.092Z,79.70
2023-02-11T09:44:38.537Z,79.80
2023-02-11T09:47:30.433Z,79.70
2023-02-11T09:50:07.455Z,79.90
2023-02-11T09:52:41.691Z,80.20
2023-02-11T09:55:28.389Z,80.20
2023-02-11T09:57:57.217Z,80.30
2023-02-11T10:00:54.197Z,80.30
2023-02-11T10:04:10.349Z,80.60
2023-02-11T10:07:11.070Z,80.50
2023-02-11T10:10:01.697Z,80.30
2023-02-11T10:13:16.771Z,80.40
2023-02-11T10:16:22.638Z,80.40
2023-02-11T10:19:23.835Z,80.40
2023-02-11T10:22:18.315Z,80.40
2023-02-11T10:24:58.178Z,80.40
2023-02-11T10:27:34.397Z,80.50
2023-02-11T10:30:24.251Z,80.80
2023-02-11T10:33:05.972Z,80.80
2023-02-11T10:35:33.559Z,80.80
2023-02-11T10:38:01.200Z,80.90
2023-02-11T10:40:31.268Z,80.60
2023-02-11T10:43:06.936Z,80.50
2023-02-11T10:45:48.821Z,80.80
2023-02-11T10:48:49.650Z,80.70
2023-02-11T10:51:25.824Z,81.00
2023-02-11T10:54:05.311Z,80.80
2023-02-11T10:56:38.272Z,81.20
2023-02-11T10:59:15.226Z,81.10
2023-02-11T11:01:48.461Z,81.10
2023-02-11T11:04:39.321Z,81.10
2023-02-11T11:07:24.416Z,81.50
2023-02-11T11:10:02.498Z,81.40
2023-02-11T11:12:48.794Z,81.60
2023-02-11T11:15:24.278Z,81.90
2023-02-11T11:18:21.885Z,82.10
2023-02-11T11:21:33.284Z,82.00
2023-02-11T11:24:04.018Z,82.50
2023-02-11T11:26:47.874Z,82.50
2023-02-11T11:29:46.207Z,82.70
2023-02-11T11:32:28.885Z,82.90
2023-02-11T11:35:17.712Z,83.10
2023-02-11T11:37:46.036Z,83.00
2023-02-11T11:40:15.963Z,83.10
2023-02-11T11:42:43.474Z,83.50
2023-02-11T11:45:16.443Z,83.60
2023-02-11T11:47:54.625Z,83.70
2023-02-11T11:50:55.918Z,83.70
2023-02-11T11:53:42.137Z,83.90
2023-02-11T11:56:23.371Z,83.80
2023-02-11T11:58:50.900Z,84.00
2023-02-11T12:01:51.858Z,83.90
2023-02-11T12:04:46.422Z,84.90
2023-02-11T12:08:03.923Z,84.30
2023-02-11T12:10:49.696Z,84.30
2023-02-11T12:14:08.065Z,84.00
2023-02-11T12:17:04.108Z,84.10
2023-02-11T12:19:50.577Z,84.00
2023-02-11T12:22:29.909Z,83.90
2023-02-11T12:25:08.885Z,83.90
2023-02-11T12:27:50.735Z,84.00
2023-02-11T12:30:17.647Z,83.90
2023-02-11T12:33:11.741Z,84.00
2023-02-11T12:36:16.006Z,84.00
2023-02-11T12:39:00.168Z,84.10
2023-02-11T12:42:17.076Z,84.10
2023-02-11T12:45:16.093Z,84.00
2023-02-11T12:48:04.200Z,84.10
2023-02-11T12:50:40.069Z,83.90
2023-02-11T12:53:32.242Z,83.90
2023-02-11T12:56:15.044Z,83.80
2023-02-11T12:58:45.736Z,83.90
2023-02-11T13:01:34.289Z,83.90
2023-02-11T13:04:18.062Z,83.90
2023-02-11T13:06:51.141Z,84.00
2023-02-11T13:09:46.552Z,83.90
2023-02-11T13:12:33.366Z,83.90
2023-02-11T13:15:07.557Z,84.60
2023-02-11T13:17:47.601Z,84.00
2023-02-11T13:20:59.962Z,84.20
2023-02-11T13:23:58.085Z,84.30
2023-02-11T13:26:40.632Z,84.30
2023-02-11T13:29:31.917Z,84.30
2023-02-11T13:32:14.499Z,84.30
2023-02-11T13:34:41.496Z,84.30
2023-02-11T13:37:37.733Z,84.00
2023-02-11T13:40:07.760Z,84.20
2023-02-11T13:42:50.099Z,84.20
2023-02-11T13:45:46.066Z,84.40
2023-02-11T13:48:26.598Z,84.80
2023-02-11T13:50:58.702Z,84.70
2023-02-11T13:53:26.302Z,84.80
2023-02-11T13:56:07.777Z,84.50
2023-02-11T13:58:47.084Z,84.50
2023-02-11T14:02:22.811Z,84.50
2023-02-11T14:05:42.791Z,84.60
2023-02-11T14:08:28.373Z,84.70
2023-02-11T14:10:58.008Z,84.40
2023-02-11T14:14:14.424Z,84.50
2023-02-11T14:16:59.750Z,84.90
2023-02-11T14:19:45.101Z,84.90
2023-02-11T14:22:44.092Z,84.80
2023-02-11T14:25:25.722Z,85.10
2023-02-11T14:28:22.001Z,85.20
2023-02-11T14:31:10.681Z,85.40
2023-02-11T14:33:40.616Z,85.10
2023-02-11T14:36:39.603Z,85.30
2023-02-11T14:39:24.220Z,85.50
2023-02-11T14:41:51.657Z,85.70
2023-02-11T14:44:31.519Z,85.50
2023-02-11T14:46:59.214Z,85.70
2023-02-11T14:49:34.320Z,85.50
2023-02-11T14:52:19.784Z,85.70
2023-02-11T14:54:50.312Z,85.70
2023-02-11T14:57:20.392Z,85.80
2023-02-11T15:00:14.203Z,85.80
2023-02-11T15:02:44.510Z,86.70
2023-02-11T15:05:27.462Z,85.90
2023-02-11T15:08:04.276Z,85.90
2023-02-11T15:10:42.007Z,85.90
2023-02-11T15:13:16.600Z,85.80
2023-02-11T15:15:46.303Z,85.90
2023-02-11T15:18:31.972Z,86.10
2023-02-11T15:20:59.088Z,86.10
2023-02-11T15:23:29.360Z,85.90
2023-02-11T15:25:56.518Z,86.00
2023-02-11T15:28:30.803Z,86.10
2023-02-11T15:31:16.779Z,86.80
2023-02-11T15:33:43.965Z,86.30
2023-02-11T15:36:13.892Z,86.10
2023-02-11T15:38:41.126Z,86.20
2023-02-11T15:41:37.970Z,86.20
2023-02-11T15:44:05.242Z,86.20
2023-02-11T15:46:39.312Z,86.30
2023-02-11T15:49:08.640Z,86.40
2023-02-11T15:51:37.786Z,86.70
2023-02-11T15:54:21.593Z,86.50
2023-02-11T15:56:59.151Z,86.60
2023-02-11T15:59:38.034Z,86.30
2023-02-11T16:02:18.630Z,86.50
2023-02-11T16:04:57.313Z,86.80
2023-02-11T16:07:50.308Z,86.80
2023-02-11T16:10:24.496Z,87.10
2023-02-11T16:12:53.390Z,86.90
2023-02-11T16:15:43.005Z,86.90
2023-02-11T16:18:36.716Z,87.10
2023-02-11T16:21:07.362Z,87.10
2023-02-11T16:23:44.303Z,87.00
2023-02-11T16:26:32.948Z,87.10
2023-02-11T16:29:25.982Z,87.00
2023-02-11T16:32:09.131Z,87.00
2023-02-11T16:34:36.849Z,86.70
2023-02-11T16:37:05.610Z,86.70
2023-02-11T16:39:33.061Z,86.70
2023-02-11T16:42:01.194Z,86.70
2023-02-11T16:44:29.225Z,86.70
2023-02-11T16:47:00.210Z,86.60
2023-02-11T16:49:32.272Z,86.70
2023-02-11T16:52:01.913Z,86.70
2023-02-11T16:54:30.199Z,86.70
2023-02-11T16:56:57.951Z,86.70
2023-02-11T16:59:25.119Z,86.60
2023-02-11T17:01:54.647Z,86.60
2023-02-11T17:04:28.757Z,86.60
2023-02-11T17:06:58.222Z,86.70
2023-02-11T17:09:30.607Z,86.70
2023-02-11T17:11:58.095Z,86.90
2023-02-11T17:14:25.110Z,86.90
2023-02-11T17:16:52.032Z,87.00
2023-02-11T17:19:21.560Z,87.10
2023-02-11T17:21:51.731Z,87.10
2023-02-11T17:24:20.178Z,87.10
2023-02-11T17:26:48.413Z,87.10
2023-02-11T17:29:19.216Z,87.00
2023-02-11T17:31:46.362Z,87.00
2023-02-11T17:34:13.344Z,86.80
2023-02-11T17:36:41.374Z,86.80
2023-02-11T17:39:08.529Z,86.80
2023-02-11T17:41:37.436Z,86.80
2023-02-11T17:44:05.168Z,86.90
2023-02-11T17:46:32.540Z,87.00
2023-02-11T17:49:00.233Z,87.00
2023-02-11T17:51:34.097Z,87.00
2023-02-11T17:54:07.403Z,86.90
2023-02-11T17:56:36.698Z,86.90
2023-02-11T17:59:05.534Z,86.90
2023-02-11T18:01:34.176Z,86.90
2023-02-11T18:04:01.883Z,86.90
2023-02-11T18:06:29.352Z,86.90
2023-02-11T18:08:59.851Z,86.80
2023-02-11T18:11:27.938Z,86.70
2023-02-11T18:13:55.419Z,86.70
2023-02-11T18:16:25.018Z,86.70
2023-02-11T18:18:53.309Z,86.60
2023-02-11T18:21:22.814Z,86.60
2023-02-11T18:23:50.472Z,86.60
2023-02-11T18:26:20.986Z,86.50
2023-02-11T18:28:48.090Z,86.40
2023-02-11T18:31:15.199Z,86.40
2023-02-11T18:33:42.769Z,86.30
2023-02-11T18:36:13.628Z,86.10
2023-02-11T18:38:42.142Z,86.00
2023-02-11T18:41:09.275Z,86.00
2023-02-11T18:43:37.063Z,86.00
2023-02-11T18:46:11.344Z,86.00
2023-02-11T18:48:39.851Z,86.10
2023-02-11T18:51:19.932Z,86.00
2023-02-11T18:53:47.211Z,85.90
2023-02-11T18:56:18.755Z,85.70
2023-02-11T18:58:46.051Z,85.70
2023-02-11T19:01:24.376Z,85.60
2023-02-11T19:03:52.326Z,85.60
2023-02-11T19:06:26.087Z,85.40
2023-02-11T19:09:00.705Z,85.50
2023-02-11T19:11:50.015Z,85.30
2023-02-11T19:14:34.138Z,85.20
2023-02-11T19:17:05.554Z,85.10
2023-02-11T19:19:35.717Z,85.00
2023-02-11T19:22:08.504Z,85.00
2023-02-11T19:24:37.896Z,84.90
2023-02-11T19:27:05.585Z,84.80
2023-02-11T19:29:34.941Z,84.80
2023-02-11T19:32:05.765Z,84.80
2023-02-11T19:34:33.789Z,84.80
2023-02-11T19:37:01.548Z,84.90
2023-02-11T19:39:28.707Z,84.90
2023-02-11T19:41:55.813Z,84.90
2023-02-11T19:44:23.029Z,85.00
2023-02-11T19:46:53.059Z,84.90
2023-02-11T19:49:23.502Z,84.80
2023-02-11T19:51:51.600Z,84.80
2023-02-11T19:54:20.291Z,84.70
2023-02-11T19:56:48.718Z,84.70
2023-02-11T19:59:16.620Z,84.70
2023-02-11T20:01:46.253Z,84.60
2023-02-11T20:04:13.732Z,84.60
2023-02-11T20:06:40.814Z,84.70
2023-02-11T20:09:13.181Z,84.60
2023-02-11T20:11:40.824Z,84.70
2023-02-11T20:14:08.617Z,84.90
2023-02-11T20:16:47.476Z,85.00
2023-02-11T20:19:22.010Z,85.10
2023-02-11T20:21:52.661Z,85.20
2023-02-11T20:24:21.497Z,85.10
2023-02-11T20:26:49.390Z,85.10
2023-02-11T20:29:18.369Z,85.60
2023-02-11T20:31:46.366Z,85.20
2023-02-11T20:34:13.793Z,85.20
2023-02-11T20:36:40.904Z,85.10
2023-02-11T20:39:10.067Z,85.10
2023-02-11T20:41:40.959Z,85.20
2023-02-11T20:44:11.161Z,85.20
2023-02-11T20:46:42.553Z,85.20
2023-02-11T20:49:12.913Z,85.20
2023-02-11T20:51:40.782Z,85.10
2023-02-11T20:54:14.180Z,85.10
2023-02-11T20:56:41.463Z,85.80
2023-02-11T20:59:08.894Z,85.10
2023-02-11T21:01:43.248Z,85.00
2023-02-11T21:04:21.197Z,84.90
2023-02-11T21:06:55.145Z,85.00
2023-02-11T21:09:26.540Z,84.90
2023-02-11T21:11:54.772Z,84.80
2023-02-11T21:14:24.652Z,84.80
2023-02-11T21:16:52.026Z,84.70
2023-02-11T21:19:19.392Z,84.70
2023-02-11T21:21:47.070Z,84.60
2023-02-11T21:24:14.582Z,84.50
2023-02-11T21:26:41.534Z,84.50
2023-02-11T21:29:09.075Z,84.50
2023-02-11T21:31:37.961Z,84.50
2023-02-11T21:34:06.109Z,84.50
2023-02-11T21:36:33.421Z,84.50
2023-02-11T21:39:01.685Z,84.60
2023-02-11T21:41:29.412Z,84.60
2023-02-11T21:43:57.123Z,84.50
2023-02-11T21:46:24.522Z,84.40
2023-02-11T21:48:52.449Z,84.50
2023-02-11T21:51:23.384Z,84.20
2023-02-11T21:53:59.823Z,84.10
2023-02-11T21:56:28.187Z,84.10
2023-02-11T21:58:57.670Z,84.00
2023-02-11T22:01:29.250Z,83.90
2023-02-11T22:03:58.340Z,83.90
2023-02-11T22:06:31.377Z,83.90
2023-02-11T22:08:59.051Z,83.90
2023-02-11T22:11:26.038Z,83.80
2023-02-11T22:13:55.418Z,83.80
2023-02-11T22:16:23.621Z,83.80
2023-02-11T22:18:51.350Z,83.80
2023-02-11T22:21:21.559Z,83.80
2023-02-11T22:23:49.341Z,83.70
2023-02-11T22:26:21.131Z,83.70
2023-02-11T22:28:49.450Z,83.70
2023-02-11T22:31:29.561Z,83.70
2023-02-11T22:33:57.543Z,83.70
2023-02-11T22:36:45.274Z,83.60
2023-02-11T22:39:15.212Z,83.60
2023-02-11T22:41:44.222Z,83.70
2023-02-11T22:44:11.966Z,83.60
2023-02-11T22:46:39.723Z,83.70
2023-02-11T22:49:07.321Z,83.60
2023-02-11T22:51:34.832Z,83.70
2023-02-11T22:54:05.622Z,83.70
2023-02-11T22:56:34.838Z,84.10
2023-02-11T22:59:05.676Z,83.70
2023-02-11T23:01:33.638Z,83.70
2023-02-11T23:04:03.922Z,83.60
2023-02-11T23:06:31.129Z,83.90
2023-02-11T23:08:58.674Z,83.70
2023-02-11T23:11:28.901Z,83.60
2023-02-11T23:13:56.605Z,83.60
2023-02-11T23:16:33.253Z,83.60
2023-02-11T23:19:04.141Z,83.60
2023-02-11T23:21:34.628Z,83.50
2023-02-11T23:24:07.227Z,83.50
2023-02-11T23:26:35.183Z,83.50
2023-02-11T23:29:02.668Z,83.60
2023-02-11T23:31:37.449Z,83.50
2023-02-11T23:34:05.940Z,83.60
2023-02-11T23:36:33.556Z,83.40
2023-02-11T23:39:00.654Z,83.40
2023-02-11T23:41:28.567Z,83.40
2023-02-11T23:43:57.944Z,83.40
2023-02-11T23:46:27.458Z,83.50
2023-02-11T23:48:54.479Z,83.50
2023-02-11T23:51:22.627Z,83.50
2023-02-11T23:53:50.269Z,83.50
2023-02-11T23:56:24.300Z,83.50
2023-02-11T23:58:54.315Z,83.50
